sensor_id;sensor_type;location;lat;lon;timestamp;pressure;altitude;pressure_sealevel;temperature;humidity
29371;BME280;16357;52.188;7.838;2024-03-02T00:00:39;99515.41;;;8.90;54.55
29371;BME280;16357;52.188;7.838;2024-03-02T00:03:07;99512.88;;;8.89;54.71
29371;BME280;16357;52.188;7.838;2024-03-02T00:05:36;99509.53;;;8.87;54.63
29371;BME280;16357;52.188;7.838;2024-03-02T00:08:04;99507.88;;;8.86;54.87
29371;BME280;16357;52.188;7.838;2024-03-02T00:10:38;99499.19;;;8.84;54.61
29371;BME280;16357;52.188;7.838;2024-03-02T00:13:08;99501.22;;;8.82;54.78
29371;BME280;16357;52.188;7.838;2024-03-02T00:15:46;99500.38;;;8.81;54.63
29371;BME280;16357;52.188;7.838;2024-03-02T00:18:24;99497.91;;;8.79;54.79
29371;BME280;16357;52.188;7.838;2024-03-02T00:20:54;99497.03;;;8.79;54.85
29371;BME280;16357;52.188;7.838;2024-03-02T00:23:23;99497.25;;;8.77;55.02
29371;BME280;16357;52.188;7.838;2024-03-02T00:25:51;99496.41;;;8.77;54.92
29371;BME280;16357;52.188;7.838;2024-03-02T00:28:32;99499.09;;;8.77;54.62
29371;BME280;16357;52.188;7.838;2024-03-02T00:31:06;99497.25;;;8.77;54.96
29371;BME280;16357;52.188;7.838;2024-03-02T00:33:45;99500.91;;;8.76;54.92
29371;BME280;16357;52.188;7.838;2024-03-02T00:36:14;99507.28;;;8.75;54.95
29371;BME280;16357;52.188;7.838;2024-03-02T00:38:46;99511.78;;;8.75;54.94
29371;BME280;16357;52.188;7.838;2024-03-02T00:46:23;99503.25;;;8.71;55.02
29371;BME280;16357;52.188;7.838;2024-03-02T00:48:58;99501.63;;;8.70;55.12
29371;BME280;16357;52.188;7.838;2024-03-02T00:51:30;99497.28;;;8.69;54.97
29371;BME280;16357;52.188;7.838;2024-03-02T00:54:02;99493.94;;;8.67;55.07
29371;BME280;16357;52.188;7.838;2024-03-02T00:56:31;99496.97;;;8.64;55.20
29371;BME280;16357;52.188;7.838;2024-03-02T00:58:58;99488.94;;;8.64;55.25
29371;BME280;16357;52.188;7.838;2024-03-02T01:01:25;99495.47;;;8.62;55.12
29371;BME280;16357;52.188;7.838;2024-03-02T01:03:52;99486.78;;;8.60;55.42
29371;BME280;16357;52.188;7.838;2024-03-02T01:06:19;99473.59;;;8.58;55.08
29371;BME280;16357;52.188;7.838;2024-03-02T01:08:45;99471.94;;;8.57;55.13
29371;BME280;16357;52.188;7.838;2024-03-02T01:11:17;99473.94;;;8.55;55.16
29371;BME280;16357;52.188;7.838;2024-03-02T01:13:51;99483.81;;;8.54;55.53
29371;BME280;16357;52.188;7.838;2024-03-02T01:16:19;99472.47;;;8.52;55.72
29371;BME280;16357;52.188;7.838;2024-03-02T01:18:45;99477.81;;;8.52;55.73
29371;BME280;16357;52.188;7.838;2024-03-02T01:21:12;99483.81;;;8.54;55.62
29371;BME280;16357;52.188;7.838;2024-03-02T01:23:39;99478.63;;;8.53;55.71
29371;BME280;16357;52.188;7.838;2024-03-02T01:26:05;99473.28;;;8.53;55.34
29371;BME280;16357;52.188;7.838;2024-03-02T01:28:32;99473.28;;;8.53;55.77
29371;BME280;16357;52.188;7.838;2024-03-02T01:30:58;99474.31;;;8.52;55.38
29371;BME280;16357;52.188;7.838;2024-03-02T01:33:25;99469.78;;;8.52;55.52
29371;BME280;16357;52.188;7.838;2024-03-02T01:35:51;99470.59;;;8.53;55.62
29371;BME280;16357;52.188;7.838;2024-03-02T01:38:18;99467.31;;;8.51;55.47
29371;BME280;16357;52.188;7.838;2024-03-02T01:40:44;99461.97;;;8.51;55.72
29371;BME280;16357;52.188;7.838;2024-03-02T01:43:11;99465.63;;;8.50;55.72
29371;BME280;16357;52.188;7.838;2024-03-02T01:45:38;99464.63;;;8.51;55.76
29371;BME280;16357;52.188;7.838;2024-03-02T01:48:05;99460.28;;;8.50;55.78
29371;BME280;16357;52.188;7.838;2024-03-02T01:50:33;99460.47;;;8.48;55.73
29371;BME280;16357;52.188;7.838;2024-03-02T01:53:00;99463.13;;;8.48;55.80
29371;BME280;16357;52.188;7.838;2024-03-02T01:55:28;99457.97;;;8.47;55.56
29371;BME280;16357;52.188;7.838;2024-03-02T01:57:57;99455.28;;;8.47;55.94
29371;BME280;16357;52.188;7.838;2024-03-02T02:00:25;99450.97;;;8.46;55.73
29371;BME280;16357;52.188;7.838;2024-03-02T02:02:53;99447.47;;;8.45;56.04
29371;BME280;16357;52.188;7.838;2024-03-02T02:05:20;99441.25;;;8.45;55.65
29371;BME280;16357;52.188;7.838;2024-03-02T02:07:47;99443.09;;;8.44;55.83
29371;BME280;16357;52.188;7.838;2024-03-02T02:10:13;99439.59;;;8.44;56.07
29371;BME280;16357;52.188;7.838;2024-03-02T02:12:40;99434.25;;;8.44;56.12
29371;BME280;16357;52.188;7.838;2024-03-02T02:15:26;99432.59;;;8.43;55.70
29371;BME280;16357;52.188;7.838;2024-03-02T02:17:54;99432.75;;;8.41;56.06
29371;BME280;16357;52.188;7.838;2024-03-02T02:20:22;99429.25;;;8.41;56.31
29371;BME280;16357;52.188;7.838;2024-03-02T02:23:02;99422.91;;;8.42;55.94
29371;BME280;16357;52.188;7.838;2024-03-02T02:25:29;99425.56;;;8.42;56.41
29371;BME280;16357;52.188;7.838;2024-03-02T02:27:57;99419.25;;;8.43;56.06
29371;BME280;16357;52.188;7.838;2024-03-02T02:30:28;99415.38;;;8.45;56.31
29371;BME280;16357;52.188;7.838;2024-03-02T02:32:55;99419.88;;;8.45;56.24
29371;BME280;16357;52.188;7.838;2024-03-02T02:35:22;99425.06;;;8.46;56.22
29371;BME280;16357;52.188;7.838;2024-03-02T02:37:52;99421.56;;;8.46;56.46
29371;BME280;16357;52.188;7.838;2024-03-02T02:40:19;99412.53;;;8.47;56.13
29371;BME280;16357;52.188;7.838;2024-03-02T02:42:46;99419.56;;;8.48;56.26
29371;BME280;16357;52.188;7.838;2024-03-02T02:45:12;99414.22;;;8.48;56.40
29371;BME280;16357;52.188;7.838;2024-03-02T02:47:41;99415.84;;;8.49;56.40
29371;BME280;16357;52.188;7.838;2024-03-02T02:50:09;99405.16;;;8.49;55.95
29371;BME280;16357;52.188;7.838;2024-03-02T02:52:37;99397.16;;;8.49;56.22
29371;BME280;16357;52.188;7.838;2024-03-02T02:55:08;99394.47;;;8.49;55.97
29371;BME280;16357;52.188;7.838;2024-03-02T02:57:36;99410.50;;;8.49;56.19
29371;BME280;16357;52.188;7.838;2024-03-02T03:00:09;99398.16;;;8.48;56.15
29371;BME280;16357;52.188;7.838;2024-03-02T03:02:49;99400.84;;;8.48;55.99
29371;BME280;16357;52.188;7.838;2024-03-02T03:05:17;99399.16;;;8.47;56.20
29371;BME280;16357;52.188;7.838;2024-03-02T03:07:44;99400.19;;;8.46;56.37
29371;BME280;16357;52.188;7.838;2024-03-02T03:10:11;99400.19;;;8.46;56.12
29371;BME280;16357;52.188;7.838;2024-03-02T03:12:40;99395.66;;;8.46;56.34
29371;BME280;16357;52.188;7.838;2024-03-02T03:15:09;99400.19;;;8.46;56.13
29371;BME280;16357;52.188;7.838;2024-03-02T03:17:36;99397.50;;;8.46;56.49
29371;BME280;16357;52.188;7.838;2024-03-02T03:20:04;99400.19;;;8.46;56.42
29371;BME280;16357;52.188;7.838;2024-03-02T03:22:31;99398.50;;;8.45;56.27
29371;BME280;16357;52.188;7.838;2024-03-02T03:24:58;99401.34;;;8.43;56.35
29371;BME280;16357;52.188;7.838;2024-03-02T03:27:25;99402.53;;;8.41;56.60
29371;BME280;16357;52.188;7.838;2024-03-02T03:29:52;99402.53;;;8.41;56.57
29371;BME280;16357;52.188;7.838;2024-03-02T03:32:19;99400.03;;;8.39;56.46
29371;BME280;16357;52.188;7.838;2024-03-02T03:34:45;99401.84;;;8.39;56.29
29371;BME280;16357;52.188;7.838;2024-03-02T03:39:44;99400.53;;;8.34;56.69
29371;BME280;16357;52.188;7.838;2024-03-02T03:42:10;99400.72;;;8.33;56.42
29371;BME280;16357;52.188;7.838;2024-03-02T03:44:37;99409.91;;;8.30;56.94
29371;BME280;16357;52.188;7.838;2024-03-02T03:47:03;99412.75;;;8.29;56.95
29371;BME280;16357;52.188;7.838;2024-03-02T03:49:30;99405.75;;;8.28;57.03
29371;BME280;16357;52.188;7.838;2024-03-02T03:51:56;99405.91;;;8.26;57.17
29371;BME280;16357;52.188;7.838;2024-03-02T03:54:23;99410.41;;;8.26;57.02
29371;BME280;16357;52.188;7.838;2024-03-02T03:56:49;99414.13;;;8.25;56.88
29371;BME280;16357;52.188;7.838;2024-03-02T03:59:16;99412.28;;;8.25;57.14
29371;BME280;16357;52.188;7.838;2024-03-02T04:01:42;99409.59;;;8.25;57.37
29371;BME280;16357;52.188;7.838;2024-03-02T04:04:09;99402.41;;;8.26;56.95
29371;BME280;16357;52.188;7.838;2024-03-02T04:06:35;99411.25;;;8.26;57.14
29371;BME280;16357;52.188;7.838;2024-03-02T04:09:02;99406.94;;;8.25;57.37
29371;BME280;16357;52.188;7.838;2024-03-02T04:11:30;99405.44;;;8.23;57.36
29371;BME280;16357;52.188;7.838;2024-03-02T04:13:56;99408.09;;;8.23;57.08
29371;BME280;16357;52.188;7.838;2024-03-02T04:16:24;99401.09;;;8.22;57.01
29371;BME280;16357;52.188;7.838;2024-03-02T04:18:50;99412.13;;;8.19;57.51
29371;BME280;16357;52.188;7.838;2024-03-02T04:21:17;99411.66;;;8.15;57.03
29371;BME280;16357;52.188;7.838;2024-03-02T04:23:43;99411.81;;;8.13;57.29
29371;BME280;16357;52.188;7.838;2024-03-02T04:26:10;99407.66;;;8.11;57.44
29371;BME280;16357;52.188;7.838;2024-03-02T04:28:36;99404.34;;;8.09;57.45
29371;BME280;16357;52.188;7.838;2024-03-02T04:31:03;99403.66;;;8.07;57.30
29371;BME280;16357;52.188;7.838;2024-03-02T04:33:30;99410.03;;;8.06;57.55
29371;BME280;16357;52.188;7.838;2024-03-02T04:35:56;99415.69;;;8.03;57.36
29371;BME280;16357;52.188;7.838;2024-03-02T04:38:24;99414.03;;;8.02;57.56
29371;BME280;16357;52.188;7.838;2024-03-02T04:40:50;99412.53;;;7.99;57.61
29371;BME280;16357;52.188;7.838;2024-03-02T04:43:16;99410.88;;;7.98;57.64
29371;BME280;16357;52.188;7.838;2024-03-02T04:45:43;99415.38;;;7.98;57.92
29371;BME280;16357;52.188;7.838;2024-03-02T04:48:09;99424.41;;;7.97;57.93
29371;BME280;16357;52.188;7.838;2024-03-02T04:50:36;99421.72;;;7.97;58.05
29371;BME280;16357;52.188;7.838;2024-03-02T04:53:03;99420.06;;;7.96;57.77
29371;BME280;16357;52.188;7.838;2024-03-02T04:55:29;99419.22;;;7.95;57.84
29371;BME280;16357;52.188;7.838;2024-03-02T04:58:15;99428.09;;;7.96;58.15
29371;BME280;16357;52.188;7.838;2024-03-02T05:00:42;99425.56;;;7.94;58.08
29371;BME280;16357;52.188;7.838;2024-03-02T05:03:09;99432.75;;;7.94;57.78
29371;BME280;16357;52.188;7.838;2024-03-02T05:05:35;99423.91;;;7.93;57.89
29371;BME280;16357;52.188;7.838;2024-03-02T05:08:03;99426.59;;;7.93;57.89
29371;BME280;16357;52.188;7.838;2024-03-02T05:10:30;99436.44;;;7.93;58.13
29371;BME280;16357;52.188;7.838;2024-03-02T05:12:56;99430.25;;;7.92;58.01
29371;BME280;16357;52.188;7.838;2024-03-02T05:15:25;99435.59;;;7.92;58.48
29371;BME280;16357;52.188;7.838;2024-03-02T05:17:52;99433.94;;;7.91;58.39
29371;BME280;16357;52.188;7.838;2024-03-02T05:20:19;99428.75;;;7.89;58.39
29371;BME280;16357;52.188;7.838;2024-03-02T05:22:45;99434.09;;;7.89;58.27
29371;BME280;16357;52.188;7.838;2024-03-02T05:25:13;99432.44;;;7.88;58.08
29371;BME280;16357;52.188;7.838;2024-03-02T05:27:40;99433.47;;;7.87;58.13
29371;BME280;16357;52.188;7.838;2024-03-02T05:30:07;99431.78;;;7.86;58.13
29371;BME280;16357;52.188;7.838;2024-03-02T05:32:34;99445.13;;;7.86;58.10
29371;BME280;16357;52.188;7.838;2024-03-02T05:35:00;99443.47;;;7.85;58.43
29371;BME280;16357;52.188;7.838;2024-03-02T05:37:27;99445.31;;;7.85;58.26
29371;BME280;16357;52.188;7.838;2024-03-02T05:39:54;99456.81;;;7.85;58.52
29371;BME280;16357;52.188;7.838;2024-03-02T05:42:20;99452.47;;;7.84;58.39
29371;BME280;16357;52.188;7.838;2024-03-02T05:44:47;99459.50;;;7.85;58.54
29371;BME280;16357;52.188;7.838;2024-03-02T05:47:13;99468.31;;;7.86;58.89
29371;BME280;16357;52.188;7.838;2024-03-02T05:49:40;99462.16;;;7.85;58.58
29371;BME280;16357;52.188;7.838;2024-03-02T05:52:06;99466.47;;;7.86;58.95
29371;BME280;16357;52.188;7.838;2024-03-02T05:54:33;99469.81;;;7.88;58.76
29371;BME280;16357;52.188;7.838;2024-03-02T05:57:00;99462.47;;;7.90;59.11
29371;BME280;16357;52.188;7.838;2024-03-02T05:59:43;99463.47;;;7.89;59.00
29371;BME280;16357;52.188;7.838;2024-03-02T06:02:12;99461.47;;;7.91;58.64
29371;BME280;16357;52.188;7.838;2024-03-02T06:04:38;99464.13;;;7.91;58.53
29371;BME280;16357;52.188;7.838;2024-03-02T06:07:05;99472.16;;;7.91;58.70
29371;BME280;16357;52.188;7.838;2024-03-02T06:09:32;99469.47;;;7.91;58.83
29371;BME280;16357;52.188;7.838;2024-03-02T06:11:58;99474.81;;;7.91;58.86
29371;BME280;16357;52.188;7.838;2024-03-02T06:14:25;99472.16;;;7.91;59.15
29371;BME280;16357;52.188;7.838;2024-03-02T06:16:51;99466.81;;;7.91;59.11
29371;BME280;16357;52.188;7.838;2024-03-02T06:19:18;99463.16;;;7.93;58.86
29371;BME280;16357;52.188;7.838;2024-03-02T06:21:44;99464.13;;;7.91;59.05
29371;BME280;16357;52.188;7.838;2024-03-02T06:24:11;99462.47;;;7.90;58.83
29371;BME280;16357;52.188;7.838;2024-03-02T06:26:37;99460.78;;;7.89;59.02
29371;BME280;16357;52.188;7.838;2024-03-02T06:29:04;99461.81;;;7.88;59.00
29371;BME280;16357;52.188;7.838;2024-03-02T06:31:30;99465.50;;;7.87;59.45
29371;BME280;16357;52.188;7.838;2024-03-02T06:33:57;99469.16;;;7.86;59.12
29371;BME280;16357;52.188;7.838;2024-03-02T06:36:23;99483.50;;;7.85;59.34
29371;BME280;16357;52.188;7.838;2024-03-02T06:38:50;99487.16;;;7.84;59.59
29371;BME280;16357;52.188;7.838;2024-03-02T06:41:16;99487.16;;;7.84;59.57
29371;BME280;16357;52.188;7.838;2024-03-02T06:43:43;99492.50;;;7.84;59.49
29371;BME280;16357;52.188;7.838;2024-03-02T06:46:10;99490.69;;;7.85;59.45
29371;BME280;16357;52.188;7.838;2024-03-02T06:48:36;99495.84;;;7.86;59.80
29371;BME280;16357;52.188;7.838;2024-03-02T06:51:03;99508.22;;;7.87;59.47
29371;BME280;16357;52.188;7.838;2024-03-02T06:53:29;99500.22;;;7.87;59.65
29371;BME280;16357;52.188;7.838;2024-03-02T06:55:56;99501.88;;;7.88;59.69
29371;BME280;16357;52.188;7.838;2024-03-02T06:58:23;99496.38;;;7.90;59.91
29371;BME280;16357;52.188;7.838;2024-03-02T07:00:49;99501.50;;;7.91;60.24
29371;BME280;16357;52.188;7.838;2024-03-02T07:03:15;99495.19;;;7.93;60.14
29371;BME280;16357;52.188;7.838;2024-03-02T07:05:42;99497.53;;;7.96;59.94
29371;BME280;16357;52.188;7.838;2024-03-02T07:08:09;99494.50;;;7.99;60.02
29371;BME280;16357;52.188;7.838;2024-03-02T07:10:35;99495.16;;;8.01;60.11
29371;BME280;16357;52.188;7.838;2024-03-02T07:13:02;99497.50;;;8.04;60.40
29371;BME280;16357;52.188;7.838;2024-03-02T07:15:28;99498.66;;;8.09;60.06
29371;BME280;16357;52.188;7.838;2024-03-02T07:17:55;99498.13;;;8.14;60.44
29371;BME280;16357;52.188;7.838;2024-03-02T07:20:22;99513.47;;;8.20;60.41
29371;BME280;16357;52.188;7.838;2024-03-02T07:22:49;99493.44;;;8.24;60.17
29371;BME280;16357;52.188;7.838;2024-03-02T07:25:16;99508.78;;;8.30;60.15
29371;BME280;16357;52.188;7.838;2024-03-02T07:27:45;99508.75;;;8.39;59.96
29371;BME280;16357;52.188;7.838;2024-03-02T07:30:15;99514.06;;;8.47;60.35
29371;BME280;16357;52.188;7.838;2024-03-02T07:32:44;99513.38;;;8.53;59.89
29371;BME280;16357;52.188;7.838;2024-03-02T07:35:15;99514.19;;;8.62;59.73
29371;BME280;16357;52.188;7.838;2024-03-02T07:37:42;99522.34;;;8.68;59.98
29371;BME280;16357;52.188;7.838;2024-03-02T07:40:09;99525.81;;;8.77;59.85
29371;BME280;16357;52.188;7.838;2024-03-02T07:42:39;99529.28;;;8.86;59.52
29371;BME280;16357;52.188;7.838;2024-03-02T07:45:07;99539.09;;;8.93;59.56
29371;BME280;16357;52.188;7.838;2024-03-02T07:47:34;99532.88;;;9.01;59.23
29371;BME280;16357;52.188;7.838;2024-03-02T07:50:01;99528.47;;;9.08;59.28
29371;BME280;16357;52.188;7.838;2024-03-02T07:52:28;99532.13;;;9.15;58.81
29371;BME280;16357;52.188;7.838;2024-03-02T07:54:55;99542.94;;;9.22;58.94
29371;BME280;16357;52.188;7.838;2024-03-02T07:57:21;99534.88;;;9.30;58.82
29371;BME280;16357;52.188;7.838;2024-03-02T07:59:48;99544.84;;;9.36;58.90
29371;BME280;16357;52.188;7.838;2024-03-02T08:02:15;99550.97;;;9.45;58.49
29371;BME280;16357;52.188;7.838;2024-03-02T08:04:41;99548.44;;;9.52;58.49
29371;BME280;16357;52.188;7.838;2024-03-02T08:07:08;99548.34;;;9.60;58.43
29371;BME280;16357;52.188;7.838;2024-03-02T08:09:35;99558.19;;;9.67;58.27
29371;BME280;16357;52.188;7.838;2024-03-02T08:12:02;99556.44;;;9.75;57.81
29371;BME280;16357;52.188;7.838;2024-03-02T08:14:28;99559.06;;;9.83;58.19
29371;BME280;16357;52.188;7.838;2024-03-02T08:16:55;99564.34;;;9.91;57.60
29371;BME280;16357;52.188;7.838;2024-03-02T08:19:22;99560.94;;;9.97;57.32
29371;BME280;16357;52.188;7.838;2024-03-02T08:21:49;99556.50;;;10.04;57.37
29371;BME280;16357;52.188;7.838;2024-03-02T08:24:15;99556.63;;;10.11;57.44
29371;BME280;16357;52.188;7.838;2024-03-02T08:26:42;99563.56;;;10.20;57.45
29371;BME280;16357;52.188;7.838;2024-03-02T08:29:09;99564.31;;;10.29;57.31
29371;BME280;16357;52.188;7.838;2024-03-02T08:31:35;99559.53;;;10.39;57.28
29371;BME280;16357;52.188;7.838;2024-03-02T08:34:04;99549.38;;;10.49;56.98
29371;BME280;16357;52.188;7.838;2024-03-02T08:36:31;99557.78;;;10.61;56.73
29371;BME280;16357;52.188;7.838;2024-03-02T08:38:57;99564.53;;;10.72;56.33
29371;BME280;16357;52.188;7.838;2024-03-02T08:41:24;99562.41;;;10.82;56.14
29371;BME280;16357;52.188;7.838;2024-03-02T08:43:50;99560.22;;;10.92;55.85
29371;BME280;16357;52.188;7.838;2024-03-02T08:46:17;99563.44;;;11.03;55.74
29371;BME280;16357;52.188;7.838;2024-03-02T08:48:44;99567.06;;;11.10;55.18
29371;BME280;16357;52.188;7.838;2024-03-02T08:51:10;99566.75;;;11.19;54.82
29371;BME280;16357;52.188;7.838;2024-03-02T08:53:36;99563.97;;;11.28;54.33
29371;BME280;16357;52.188;7.838;2024-03-02T08:56:04;99556.16;;;11.33;54.69
29371;BME280;16357;52.188;7.838;2024-03-02T08:58:32;99570.47;;;11.40;54.54
29371;BME280;16357;52.188;7.838;2024-03-02T09:00:58;99574.88;;;11.48;54.28
29371;BME280;16357;52.188;7.838;2024-03-02T09:03:25;99569.59;;;11.54;54.12
29371;BME280;16357;52.188;7.838;2024-03-02T09:05:51;99575.22;;;11.59;54.09
29371;BME280;16357;52.188;7.838;2024-03-02T09:08:18;99576.31;;;11.65;53.92
29371;BME280;16357;52.188;7.838;2024-03-02T09:10:44;99567.47;;;11.71;53.93
29371;BME280;16357;52.188;7.838;2024-03-02T09:13:11;99564.84;;;11.78;53.45
29371;BME280;16357;52.188;7.838;2024-03-02T09:15:38;99578.34;;;11.84;53.47
29371;BME280;16357;52.188;7.838;2024-03-02T09:18:06;99570.56;;;11.90;53.29
29371;BME280;16357;52.188;7.838;2024-03-02T09:20:33;99577.00;;;11.95;53.28
29371;BME280;16357;52.188;7.838;2024-03-02T09:22:59;99576.25;;;12.01;52.83
29371;BME280;16357;52.188;7.838;2024-03-02T09:25:26;99584.56;;;12.06;52.96
29371;BME280;16357;52.188;7.838;2024-03-02T09:27:54;99587.28;;;12.13;52.86
29371;BME280;16357;52.188;7.838;2024-03-02T09:30:20;99582.16;;;12.18;52.92
29371;BME280;16357;52.188;7.838;2024-03-02T09:32:46;99585.75;;;12.25;52.58
29371;BME280;16357;52.188;7.838;2024-03-02T09:35:16;99580.22;;;12.34;52.73
29371;BME280;16357;52.188;7.838;2024-03-02T09:37:45;99570.34;;;12.41;52.56
29371;BME280;16357;52.188;7.838;2024-03-02T09:40:13;99578.25;;;12.49;52.07
29371;BME280;16357;52.188;7.838;2024-03-02T09:42:40;99582.81;;;12.55;52.21
29371;BME280;16357;52.188;7.838;2024-03-02T09:45:08;99582.88;;;12.62;52.04
29371;BME280;16357;52.188;7.838;2024-03-02T09:47:35;99572.97;;;12.69;51.77
29371;BME280;16357;52.188;7.838;2024-03-02T09:50:01;99577.34;;;12.77;51.67
29371;BME280;16357;52.188;7.838;2024-03-02T09:52:28;99572.84;;;12.84;51.82
29371;BME280;16357;52.188;7.838;2024-03-02T09:54:55;99578.28;;;12.90;51.74
29371;BME280;16357;52.188;7.838;2024-03-02T09:57:21;99575.59;;;12.97;51.41
29371;BME280;16357;52.188;7.838;2024-03-02T09:59:48;99573.97;;;13.03;51.37
29371;BME280;16357;52.188;7.838;2024-03-02T10:02:14;99564.88;;;13.10;51.06
29371;BME280;16357;52.188;7.838;2024-03-02T10:04:41;99563.88;;;13.18;50.63
29371;BME280;16357;52.188;7.838;2024-03-02T10:07:15;99563.91;;;13.25;50.86
29371;BME280;16357;52.188;7.838;2024-03-02T10:09:43;99560.59;;;13.29;50.61
29371;BME280;16357;52.188;7.838;2024-03-02T10:12:11;99564.38;;;13.35;50.72
29371;BME280;16357;52.188;7.838;2024-03-02T10:14:38;99558.16;;;13.41;50.20
29371;BME280;16357;52.188;7.838;2024-03-02T10:17:09;99554.66;;;13.47;50.39
29371;BME280;16357;52.188;7.838;2024-03-02T10:19:37;99559.44;;;13.52;50.39
29371;BME280;16357;52.188;7.838;2024-03-02T10:22:07;99562.13;;;13.58;50.17
29371;BME280;16357;52.188;7.838;2024-03-02T10:24:44;99570.03;;;13.67;50.16
29371;BME280;16357;52.188;7.838;2024-03-02T10:27:23;99573.75;;;13.72;50.22
29371;BME280;16357;52.188;7.838;2024-03-02T10:29:51;99566.72;;;13.78;50.23
29371;BME280;16357;52.188;7.838;2024-03-02T10:32:18;99560.50;;;13.84;49.75
29371;BME280;16357;52.188;7.838;2024-03-02T10:34:45;99560.50;;;13.91;49.97
29371;BME280;16357;52.188;7.838;2024-03-02T10:37:14;99558.84;;;13.96;49.76
29371;BME280;16357;52.188;7.838;2024-03-02T10:39:41;99551.59;;;14.03;49.54
29371;BME280;16357;52.188;7.838;2024-03-02T10:42:08;99553.22;;;14.11;49.76
29371;BME280;16357;52.188;7.838;2024-03-02T10:44:35;99549.72;;;14.17;49.47
29371;BME280;16357;52.188;7.838;2024-03-02T10:47:03;99553.00;;;14.26;49.48
29371;BME280;16357;52.188;7.838;2024-03-02T10:49:31;99544.06;;;14.32;49.31
29371;BME280;16357;52.188;7.838;2024-03-02T10:51:58;99546.56;;;14.40;48.79
29371;BME280;16357;52.188;7.838;2024-03-02T10:54:26;99544.66;;;14.47;48.94
29371;BME280;16357;52.188;7.838;2024-03-02T10:57:01;99534.72;;;14.55;49.18
29371;BME280;16357;52.188;7.838;2024-03-02T10:59:33;99530.97;;;14.62;48.98
29371;BME280;16357;52.188;7.838;2024-03-02T11:02:01;99536.75;;;14.73;48.66
29371;BME280;16357;52.188;7.838;2024-03-02T11:04:32;99540.66;;;14.83;48.09
29371;BME280;16357;52.188;7.838;2024-03-02T11:07:04;99536.25;;;14.96;48.22
29371;BME280;16357;52.188;7.838;2024-03-02T11:09:39;99544.47;;;15.07;47.46
29371;BME280;16357;52.188;7.838;2024-03-02T11:12:12;99541.91;;;15.19;47.36
29371;BME280;16357;52.188;7.838;2024-03-02T11:14:42;99543.34;;;15.28;46.29
29371;BME280;16357;52.188;7.838;2024-03-02T11:17:15;99550.13;;;15.37;46.56
29371;BME280;16357;52.188;7.838;2024-03-02T11:19:43;99539.50;;;15.43;46.15
29371;BME280;16357;52.188;7.838;2024-03-02T11:22:10;99540.53;;;15.48;45.66
29371;BME280;16357;52.188;7.838;2024-03-02T11:24:37;99541.72;;;15.52;45.52
29371;BME280;16357;52.188;7.838;2024-03-02T11:27:06;99545.44;;;15.58;45.40
29371;BME280;16357;52.188;7.838;2024-03-02T11:32:17;99538.31;;;15.64;45.22
29371;BME280;16357;52.188;7.838;2024-03-02T11:34:46;99531.63;;;15.66;44.99
29371;BME280;16357;52.188;7.838;2024-03-02T11:37:13;99538.72;;;15.67;44.57
29371;BME280;16357;52.188;7.838;2024-03-02T11:39:40;99528.56;;;15.69;44.47
29371;BME280;16357;52.188;7.838;2024-03-02T11:42:07;99529.75;;;15.73;43.99
29371;BME280;16357;52.188;7.838;2024-03-02T11:44:36;99534.97;;;15.75;44.22
29371;BME280;16357;52.188;7.838;2024-03-02T11:47:08;99533.06;;;15.75;44.53
29371;BME280;16357;52.188;7.838;2024-03-02T11:49:39;99526.59;;;15.76;44.52
29371;BME280;16357;52.188;7.838;2024-03-02T11:52:08;99532.84;;;15.77;44.71
29371;BME280;16357;52.188;7.838;2024-03-02T11:54:37;99530.75;;;15.79;44.35
29371;BME280;16357;52.188;7.838;2024-03-02T11:57:06;99525.13;;;15.80;44.18
29371;BME280;16357;52.188;7.838;2024-03-02T11:59:33;99516.56;;;15.84;44.17
29371;BME280;16357;52.188;7.838;2024-03-02T12:02:00;99517.19;;;15.86;44.14
29371;BME280;16357;52.188;7.838;2024-03-02T12:04:27;99523.22;;;15.88;44.21
29371;BME280;16357;52.188;7.838;2024-03-02T12:06:57;99525.22;;;15.92;44.09
29371;BME280;16357;52.188;7.838;2024-03-02T12:09:27;99519.81;;;15.92;43.87
29371;BME280;16357;52.188;7.838;2024-03-02T12:12:09;99518.09;;;15.98;44.48
29371;BME280;16357;52.188;7.838;2024-03-02T12:14:38;99520.38;;;16.01;44.30
29371;BME280;16357;52.188;7.838;2024-03-02T12:17:05;99514.06;;;16.07;43.96
29371;BME280;16357;52.188;7.838;2024-03-02T12:19:33;99514.84;;;16.14;43.75
29371;BME280;16357;52.188;7.838;2024-03-02T12:22:00;99505.84;;;16.20;43.54
29371;BME280;16357;52.188;7.838;2024-03-02T12:24:28;99514.47;;;16.29;43.48
29371;BME280;16357;52.188;7.838;2024-03-02T12:26:56;99514.41;;;16.36;43.34
29371;BME280;16357;52.188;7.838;2024-03-02T12:29:23;99508.09;;;16.42;42.87
29371;BME280;16357;52.188;7.838;2024-03-02T12:31:51;99499.06;;;16.48;43.29
29371;BME280;16357;52.188;7.838;2024-03-02T12:34:21;99493.22;;;16.51;43.13
29371;BME280;16357;52.188;7.838;2024-03-02T12:36:49;99498.78;;;16.56;43.25
29371;BME280;16357;52.188;7.838;2024-03-02T12:39:19;99503.50;;;16.61;42.78
29371;BME280;16357;52.188;7.838;2024-03-02T12:41:46;99499.06;;;16.66;42.72
29371;BME280;16357;52.188;7.838;2024-03-02T12:44:13;99491.09;;;16.72;42.50
29371;BME280;16357;52.188;7.838;2024-03-02T12:46:39;99491.22;;;16.77;42.33
29371;BME280;16357;52.188;7.838;2024-03-02T12:49:14;99493.06;;;16.83;42.46
29371;BME280;16357;52.188;7.838;2024-03-02T12:51:42;99499.00;;;16.92;43.75
29371;BME280;16357;52.188;7.838;2024-03-02T12:54:10;99485.81;;;16.95;41.85
29371;BME280;16357;52.188;7.838;2024-03-02T12:56:37;99480.78;;;16.99;41.90
29371;BME280;16357;52.188;7.838;2024-03-02T12:59:04;99483.84;;;17.02;41.48
29371;BME280;16357;52.188;7.838;2024-03-02T13:01:31;99482.09;;;17.08;41.45
29371;BME280;16357;52.188;7.838;2024-03-02T13:03:58;99483.31;;;17.12;41.58
29371;BME280;16357;52.188;7.838;2024-03-02T13:06:26;99495.09;;;17.18;41.51
29371;BME280;16357;52.188;7.838;2024-03-02T13:08:55;99477.91;;;17.24;41.51
29371;BME280;16357;52.188;7.838;2024-03-02T13:11:22;99480.53;;;17.30;41.30
29371;BME280;16357;52.188;7.838;2024-03-02T13:13:52;99475.25;;;17.36;41.14
29371;BME280;16357;52.188;7.838;2024-03-02T13:16:18;99484.34;;;17.41;40.81
29371;BME280;16357;52.188;7.838;2024-03-02T13:18:55;99461.09;;;17.45;40.85
29371;BME280;16357;52.188;7.838;2024-03-02T13:21:22;99462.31;;;17.49;40.74